createdAt,value
2023-03-07T00:01:24.331Z,46.90
2023-03-07T00:03:51.202Z,46.90
2023-03-07T00:06:18.495Z,40.30
2023-03-07T00:08:45.231Z,40.80
2023-03-07T00:11:12.841Z,37.00
2023-03-07T00:13:39.824Z,37.40
2023-03-07T00:16:12.435Z,36.70
2023-03-07T00:18:39.761Z,32.40
2023-03-07T00:21:09.314Z,35.90
2023-03-07T00:23:38.581Z,35.00
2023-03-07T00:26:22.337Z,32.90
2023-03-07T00:28:51.461Z,30.60
2023-03-07T00:31:19.805Z,34.20
2023-03-07T00:33:47.202Z,32.10
2023-03-07T00:36:16.540Z,28.60
2023-03-07T00:38:44.187Z,37.40
2023-03-07T00:41:13.870Z,34.20
2023-03-07T00:43:41.662Z,36.40
2023-03-07T00:46:09.549Z,31.50
2023-03-07T00:48:38.684Z,29.80
2023-03-07T00:51:08.052Z,27.30
2023-03-07T00:53:35.967Z,25.30
2023-03-07T00:56:05.980Z,28.60
2023-03-07T00:58:35.966Z,22.90
2023-03-07T01:01:05.403Z,28.90
2023-03-07T01:03:33.138Z,32.20
2023-03-07T01:06:03.937Z,36.80
2023-03-07T01:08:31.282Z,35.70
2023-03-07T01:11:00.854Z,41.80
2023-03-07T01:13:28.577Z,42.90
2023-03-07T01:15:55.585Z,45.20
2023-03-07T01:18:22.655Z,37.90
2023-03-07T01:20:49.624Z,46.30
2023-03-07T01:23:16.426Z,47.30
2023-03-07T01:25:43.868Z,38.50
2023-03-07T01:28:13.840Z,54.70
2023-03-07T01:30:41.670Z,38.80
2023-03-07T01:33:10.191Z,44.60
2023-03-07T01:35:39.992Z,46.60
2023-03-07T01:38:07.179Z,46.40
2023-03-07T01:40:39.156Z,43.10
2023-03-07T01:43:19.973Z,45.80
2023-03-07T01:45:48.998Z,38.50
2023-03-07T01:48:17.170Z,40.80
2023-03-07T01:50:44.638Z,42.10
2023-03-07T01:53:11.776Z,40.40
2023-03-07T01:55:39.397Z,37.90
2023-03-07T01:58:15.370Z,37.70
2023-03-07T02:00:44.709Z,35.00
2023-03-07T02:03:11.486Z,28.20
2023-03-07T02:05:47.348Z,36.50
2023-03-07T02:08:16.495Z,36.00
2023-03-07T02:10:43.838Z,31.20
2023-03-07T02:13:10.933Z,38.90
2023-03-07T02:15:38.435Z,34.50
2023-03-07T02:18:05.974Z,29.30
2023-03-07T02:20:51.939Z,34.70
2023-03-07T02:23:31.013Z,35.40
2023-03-07T02:26:16.806Z,30.20
2023-03-07T02:28:46.452Z,39.20
2023-03-07T02:31:13.555Z,33.00
2023-03-07T02:33:40.614Z,36.70
2023-03-07T02:36:14.366Z,37.40
2023-03-07T02:38:51.076Z,42.50
2023-03-07T02:41:24.272Z,27.70
2023-03-07T02:43:51.167Z,41.60
2023-03-07T02:46:17.998Z,39.90
2023-03-07T02:48:44.775Z,41.50
2023-03-07T02:51:12.119Z,40.90
2023-03-07T02:53:39.957Z,38.00
2023-03-07T02:56:07.962Z,36.80
2023-03-07T02:58:34.764Z,33.80
2023-03-07T03:01:01.583Z,36.70
2023-03-07T03:03:28.428Z,34.80
2023-03-07T03:05:55.141Z,35.90
2023-03-07T03:08:21.857Z,39.10
2023-03-07T03:10:54.090Z,37.60
2023-03-07T03:13:22.825Z,36.30
2023-03-07T03:15:49.827Z,35.20
2023-03-07T03:18:17.560Z,34.70
2023-03-07T03:20:44.305Z,31.10
2023-03-07T03:23:11.167Z,35.90
2023-03-07T03:25:40.101Z,33.60
2023-03-07T03:28:08.644Z,36.60
2023-03-07T03:30:36.091Z,33.80
2023-03-07T03:33:04.220Z,29.80
2023-03-07T03:35:31.442Z,29.90
2023-03-07T03:37:58.280Z,29.40
2023-03-07T03:40:25.468Z,36.80
2023-03-07T03:42:53.463Z,31.30
2023-03-07T03:45:20.930Z,25.80
2023-03-07T03:47:48.612Z,33.80
2023-03-07T03:50:15.791Z,25.70
2023-03-07T03:52:45.205Z,27.80
2023-03-07T03:55:12.427Z,25.80
2023-03-07T03:57:39.219Z,26.70
2023-03-07T04:00:09.007Z,28.40
2023-03-07T04:02:39.332Z,21.30
2023-03-07T04:05:07.422Z,26.40
2023-03-07T04:07:34.298Z,27.40
2023-03-07T04:10:01.302Z,25.50
2023-03-07T04:12:28.881Z,35.60
2023-03-07T04:15:12.561Z,32.10
2023-03-07T04:17:39.344Z,35.40
2023-03-07T04:20:10.074Z,36.80
2023-03-07T04:22:36.847Z,33.50
2023-03-07T04:25:03.849Z,34.20
2023-03-07T04:27:30.906Z,35.30
2023-03-07T04:29:57.764Z,35.90
2023-03-07T04:32:25.005Z,35.80
2023-03-07T04:34:52.196Z,34.40
2023-03-07T04:37:18.927Z,33.50
2023-03-07T04:39:45.817Z,33.90
2023-03-07T04:42:13.411Z,31.40
2023-03-07T04:44:40.227Z,32.70
2023-03-07T04:47:07.139Z,31.50
2023-03-07T04:49:35.913Z,33.40
2023-03-07T04:52:04.219Z,35.50
2023-03-07T04:54:31.130Z,32.90
2023-03-07T04:56:58.247Z,25.40
2023-03-07T04:59:26.064Z,32.00
2023-03-07T05:01:53.386Z,30.30
2023-03-07T05:04:20.206Z,32.10
2023-03-07T05:06:47.251Z,37.20
2023-03-07T05:09:14.533Z,27.20
2023-03-07T05:11:41.731Z,33.50
2023-03-07T05:14:08.559Z,32.40
2023-03-07T05:16:35.404Z,32.80
2023-03-07T05:19:04.360Z,25.60
2023-03-07T05:21:33.019Z,19.50
2023-03-07T05:24:00.635Z,29.40
2023-03-07T05:26:28.525Z,27.40
2023-03-07T05:28:55.381Z,31.40
2023-03-07T05:31:22.201Z,29.20
2023-03-07T05:34:04.674Z,29.70
2023-03-07T05:36:31.435Z,23.80
2023-03-07T05:38:58.844Z,28.00
2023-03-07T05:41:25.673Z,26.50
2023-03-07T05:43:53.039Z,27.50
2023-03-07T05:46:20.810Z,23.90
2023-03-07T05:48:47.676Z,28.10
2023-03-07T05:51:14.470Z,25.00
2023-03-07T05:53:41.617Z,21.20
2023-03-07T05:56:08.616Z,25.50
2023-03-07T05:58:36.999Z,28.50
2023-03-07T06:01:04.294Z,29.40
2023-03-07T06:03:31.851Z,29.30
2023-03-07T06:05:58.786Z,31.00
2023-03-07T06:08:25.547Z,28.30
2023-03-07T06:10:54.452Z,28.40
2023-03-07T06:13:24.251Z,26.20
2023-03-07T06:15:53.046Z,23.60
2023-03-07T06:18:21.565Z,32.20
2023-03-07T06:20:57.919Z,30.10
2023-03-07T06:23:26.647Z,26.00
2023-03-07T06:25:55.022Z,26.40
2023-03-07T06:28:22.137Z,28.40
2023-03-07T06:30:49.669Z,22.60
2023-03-07T06:33:17.235Z,23.70
2023-03-07T06:35:44.540Z,20.40
2023-03-07T06:38:13.572Z,23.80
2023-03-07T06:40:41.449Z,23.20
2023-03-07T06:43:12.570Z,22.70
2023-03-07T06:45:39.346Z,25.80
2023-03-07T06:48:07.354Z,20.90
2023-03-07T06:50:35.718Z,21.80
2023-03-07T06:53:03.216Z,20.00
2023-03-07T06:55:30.497Z,23.00
2023-03-07T06:57:57.365Z,20.60
2023-03-07T07:00:24.145Z,20.70
2023-03-07T07:02:50.990Z,21.00
2023-03-07T07:05:17.945Z,20.70
2023-03-07T07:07:45.347Z,20.80
2023-03-07T07:10:13.416Z,18.00
2023-03-07T07:12:40.728Z,20.00
2023-03-07T07:15:09.757Z,17.20
2023-03-07T07:17:36.756Z,21.60
2023-03-07T07:20:05.690Z,20.40
2023-03-07T07:22:33.722Z,20.10
2023-03-07T07:25:00.493Z,17.90
2023-03-07T07:27:28.502Z,16.50
2023-03-07T07:29:55.962Z,17.70
2023-03-07T07:32:22.877Z,16.20
2023-03-07T07:34:49.944Z,18.80
2023-03-07T07:37:16.889Z,15.10
2023-03-07T07:39:44.151Z,19.40
2023-03-07T07:42:12.455Z,19.50
2023-03-07T07:44:49.341Z,16.80
2023-03-07T07:47:16.328Z,16.10
2023-03-07T07:49:43.204Z,12.20
2023-03-07T07:52:10.169Z,19.10
2023-03-07T07:54:38.688Z,14.40
2023-03-07T07:57:05.508Z,12.10
2023-03-07T07:59:34.206Z,17.20
2023-03-07T08:02:01.762Z,14.00
2023-03-07T08:04:29.509Z,12.70
2023-03-07T08:06:56.345Z,12.10
2023-03-07T08:09:23.126Z,15.40
2023-03-07T08:11:50.062Z,12.70
2023-03-07T08:14:16.857Z,15.30
2023-03-07T08:16:43.638Z,12.80
2023-03-07T08:19:11.217Z,13.40
2023-03-07T08:21:38.098Z,14.30
2023-03-07T08:24:05.018Z,14.20
2023-03-07T08:26:31.709Z,13.80
2023-03-07T08:28:59.242Z,12.40
2023-03-07T08:31:26.075Z,14.40
2023-03-07T08:33:53.210Z,13.00
2023-03-07T08:36:20.748Z,15.60
2023-03-07T08:38:51.731Z,16.60
2023-03-07T08:41:20.348Z,14.90
2023-03-07T08:43:47.371Z,14.10
2023-03-07T08:46:14.803Z,17.20
2023-03-07T08:48:41.771Z,17.90
2023-03-07T08:51:11.901Z,16.80
2023-03-07T08:53:39.185Z,15.90
2023-03-07T08:56:07.947Z,21.10
2023-03-07T08:58:34.876Z,16.40
2023-03-07T09:01:01.909Z,14.00
2023-03-07T09:03:28.688Z,17.60
2023-03-07T09:05:55.406Z,16.30
2023-03-07T09:08:22.335Z,18.50
2023-03-07T09:10:49.216Z,17.00
2023-03-07T09:13:18.289Z,20.50
2023-03-07T09:15:45.757Z,18.20
2023-03-07T09:18:12.995Z,16.30
2023-03-07T09:20:40.639Z,17.30
2023-03-07T09:23:08.181Z,15.00
2023-03-07T09:25:34.918Z,15.90
2023-03-07T09:28:01.693Z,17.20
2023-03-07T09:30:28.930Z,17.40
2023-03-07T09:32:57.348Z,17.30
2023-03-07T09:35:24.357Z,15.00
2023-03-07T09:37:51.492Z,19.30
2023-03-07T09:40:23.542Z,14.90
2023-03-07T09:43:07.304Z,16.10
2023-03-07T09:45:44.678Z,13.80
2023-03-07T09:48:45.506Z,13.00
2023-03-07T09:51:16.795Z,16.40
2023-03-07T09:54:14.317Z,15.40
2023-03-07T09:56:46.389Z,12.80
2023-03-07T09:59:24.440Z,16.00
2023-03-07T10:02:00.254Z,14.30
2023-03-07T10:04:35.609Z,13.90
2023-03-07T10:07:05.074Z,17.10
2023-03-07T10:09:31.895Z,15.50
2023-03-07T10:12:18.225Z,16.70
2023-03-07T10:15:04.082Z,13.90
2023-03-07T10:18:06.600Z,15.30
2023-03-07T10:20:54.731Z,13.10
2023-03-07T10:23:31.057Z,10.00
2023-03-07T10:26:10.238Z,17.30
2023-03-07T10:28:42.409Z,13.20
2023-03-07T10:31:25.777Z,12.90
2023-03-07T10:33:54.539Z,11.30
2023-03-07T10:36:30.639Z,13.90
2023-03-07T10:39:14.150Z,12.00
2023-03-07T10:41:40.936Z,11.80
2023-03-07T10:44:14.968Z,11.00
2023-03-07T10:46:54.978Z,13.70
2023-03-07T10:49:30.960Z,13.60
2023-03-07T10:52:05.316Z,12.80
2023-03-07T10:54:36.130Z,26.70
2023-03-07T10:57:19.204Z,13.70
2023-03-07T10:59:48.500Z,15.60
2023-03-07T11:02:31.912Z,13.60
2023-03-07T11:04:59.688Z,14.30
2023-03-07T11:07:28.707Z,12.00
2023-03-07T11:09:57.923Z,11.90
2023-03-07T11:12:27.209Z,11.50
2023-03-07T11:14:58.168Z,10.60
2023-03-07T11:17:41.683Z,10.30
2023-03-07T11:20:24.023Z,10.10
2023-03-07T11:23:13.926Z,10.30
2023-03-07T11:25:40.811Z,11.30
2023-03-07T11:28:26.046Z,12.40
2023-03-07T11:31:01.575Z,11.90
2023-03-07T11:33:56.720Z,11.00
2023-03-07T11:36:32.047Z,12.10
2023-03-07T11:39:14.657Z,12.60
2023-03-07T11:41:47.993Z,14.60
2023-03-07T11:44:30.939Z,12.10
2023-03-07T11:46:59.841Z,11.30
2023-03-07T11:49:45.760Z,11.70
2023-03-07T11:52:19.400Z,12.60
2023-03-07T11:54:47.206Z,13.60
2023-03-07T11:57:24.705Z,10.40
2023-03-07T12:00:22.124Z,11.60
2023-03-07T12:03:24.412Z,13.60
2023-03-07T12:05:52.298Z,12.70
2023-03-07T12:08:26.611Z,15.70
2023-03-07T12:11:24.690Z,12.20
2023-03-07T12:13:59.160Z,12.80
2023-03-07T12:16:44.113Z,11.80
2023-03-07T12:19:27.577Z,12.60
2023-03-07T12:22:25.195Z,9.90
2023-03-07T12:25:16.926Z,11.40
2023-03-07T12:27:53.624Z,13.10
2023-03-07T12:30:26.606Z,13.10
2023-03-07T12:32:54.422Z,11.20
2023-03-07T12:35:21.427Z,13.80
2023-03-07T12:37:52.731Z,13.40
2023-03-07T12:40:21.724Z,11.80
2023-03-07T12:43:19.023Z,12.00
2023-03-07T12:45:51.281Z,11.60
2023-03-07T12:48:29.505Z,11.30
2023-03-07T12:51:04.780Z,15.00
2023-03-07T12:53:47.955Z,13.20
2023-03-07T12:56:25.608Z,12.40
2023-03-07T12:58:58.630Z,13.30
2023-03-07T13:01:37.094Z,12.60
2023-03-07T13:04:05.002Z,15.10
2023-03-07T13:06:34.075Z,13.80
2023-03-07T13:09:04.292Z,15.40
2023-03-07T13:11:34.310Z,14.90
2023-03-07T13:14:03.042Z,12.90
2023-03-07T13:16:35.428Z,14.00
2023-03-07T13:19:32.964Z,14.00
2023-03-07T13:22:00.034Z,14.90
2023-03-07T13:24:43.359Z,13.90
2023-03-07T13:27:16.632Z,16.30
2023-03-07T13:30:16.353Z,14.80
2023-03-07T13:33:00.127Z,17.50
2023-03-07T13:35:29.066Z,15.10
2023-03-07T13:37:57.874Z,15.60
2023-03-07T13:40:26.300Z,17.30
2023-03-07T13:42:53.075Z,15.80
2023-03-07T13:45:39.967Z,13.60
2023-03-07T13:48:15.676Z,14.30
2023-03-07T13:51:02.334Z,13.20
2023-03-07T13:53:36.308Z,13.70
2023-03-07T13:56:24.790Z,17.70
2023-03-07T13:59:00.510Z,15.00
2023-03-07T14:01:31.549Z,13.70
2023-03-07T14:04:05.086Z,42.00
2023-03-07T14:06:38.667Z,45.00
2023-03-07T14:09:11.411Z,20.50
2023-03-07T14:11:44.139Z,18.50
2023-03-07T14:14:15.822Z,18.30
2023-03-07T14:16:42.725Z,16.30
2023-03-07T14:19:40.059Z,22.00
2023-03-07T14:22:29.970Z,16.80
2023-03-07T14:25:14.264Z,18.80
2023-03-07T14:27:59.260Z,18.70
2023-03-07T14:30:30.436Z,20.10
2023-03-07T14:32:58.243Z,16.70
2023-03-07T14:35:43.745Z,16.90
2023-03-07T14:38:23.269Z,15.30
2023-03-07T14:41:06.544Z,13.60
2023-03-07T14:43:42.254Z,16.00
2023-03-07T14:46:24.238Z,14.20
2023-03-07T14:49:07.650Z,14.80
2023-03-07T14:51:40.354Z,18.80
2023-03-07T14:54:15.619Z,18.80
2023-03-07T14:56:43.184Z,16.20
2023-03-07T14:59:26.113Z,18.10
2023-03-07T15:01:57.740Z,21.50
2023-03-07T15:04:27.956Z,13.40
2023-03-07T15:06:57.736Z,18.80
2023-03-07T15:09:26.069Z,17.00
2023-03-07T15:12:03.980Z,20.70
2023-03-07T15:14:34.120Z,22.50
2023-03-07T15:17:05.116Z,19.90
2023-03-07T15:19:46.507Z,26.50
2023-03-07T15:22:22.752Z,20.80
2023-03-07T15:24:51.903Z,21.50
2023-03-07T15:27:26.846Z,22.60
2023-03-07T15:29:55.068Z,18.10
2023-03-07T15:32:39.049Z,22.90
2023-03-07T15:35:09.330Z,19.70
2023-03-07T15:37:52.172Z,22.80
2023-03-07T15:40:31.459Z,26.50
2023-03-07T15:43:04.396Z,20.90
2023-03-07T15:45:35.506Z,22.60
2023-03-07T15:48:15.627Z,23.90
2023-03-07T15:50:42.782Z,23.20
2023-03-07T15:53:19.619Z,35.50
2023-03-07T15:55:56.859Z,21.60
2023-03-07T15:58:24.097Z,30.80
2023-03-07T16:01:05.765Z,44.30
2023-03-07T16:03:33.394Z,38.20
2023-03-07T16:06:01.379Z,18.80
2023-03-07T16:08:28.238Z,32.60
2023-03-07T16:11:01.251Z,28.00
2023-03-07T16:13:32.549Z,22.00
2023-03-07T16:16:09.054Z,26.60
2023-03-07T16:18:36.514Z,27.00
2023-03-07T16:21:03.240Z,26.00
2023-03-07T16:23:31.490Z,22.90
2023-03-07T16:25:59.888Z,37.40
2023-03-07T16:28:26.962Z,24.20
2023-03-07T16:30:53.774Z,23.20
2023-03-07T16:33:20.514Z,29.90
2023-03-07T16:35:47.789Z,35.60
2023-03-07T16:38:14.628Z,71.70
2023-03-07T16:40:44.266Z,41.00
2023-03-07T16:43:29.595Z,59.50
2023-03-07T16:45:57.387Z,29.80
2023-03-07T16:48:24.453Z,34.50
2023-03-07T16:50:51.400Z,42.50
2023-03-07T16:53:18.124Z,74.30
2023-03-07T16:55:46.102Z,71.20
2023-03-07T16:58:22.727Z,57.50
2023-03-07T17:00:53.238Z,44.90
2023-03-07T17:03:20.757Z,52.80
2023-03-07T17:05:48.274Z,53.50
2023-03-07T17:08:15.014Z,59.00
2023-03-07T17:10:44.585Z,34.40
2023-03-07T17:13:17.016Z,42.00
2023-03-07T17:15:45.713Z,59.80
2023-03-07T17:18:13.741Z,43.50
2023-03-07T17:20:40.969Z,52.30
2023-03-07T17:23:08.347Z,65.10
2023-03-07T17:25:35.584Z,256.60
2023-03-07T17:28:10.840Z,62.50
2023-03-07T17:30:37.806Z,54.20
2023-03-07T17:33:05.571Z,66.40
2023-03-07T17:35:32.345Z,51.70
2023-03-07T17:37:59.166Z,35.20
2023-03-07T17:40:26.331Z,40.90
2023-03-07T17:42:55.164Z,35.40
2023-03-07T17:45:22.291Z,35.40
2023-03-07T17:47:52.023Z,33.20
2023-03-07T17:50:23.633Z,30.20
2023-03-07T17:52:52.253Z,24.60
2023-03-07T17:55:19.615Z,36.60
2023-03-07T17:57:46.719Z,35.70
2023-03-07T18:00:14.492Z,33.00
2023-03-07T18:02:45.543Z,25.10
2023-03-07T18:05:13.181Z,33.20
2023-03-07T18:07:41.743Z,34.90
2023-03-07T18:10:10.631Z,30.90
2023-03-07T18:12:39.341Z,35.00
2023-03-07T18:15:11.297Z,65.00
2023-03-07T18:17:47.406Z,38.10
2023-03-07T18:20:16.985Z,45.30
2023-03-07T18:22:43.834Z,53.90
2023-03-07T18:25:13.031Z,35.00
2023-03-07T18:27:39.907Z,33.90
2023-03-07T18:30:07.663Z,43.80
2023-03-07T18:32:34.606Z,45.10
2023-03-07T18:35:01.516Z,41.20
2023-03-07T18:37:30.329Z,31.40
2023-03-07T18:39:57.097Z,36.00
2023-03-07T18:42:23.840Z,46.70
2023-03-07T18:44:50.752Z,36.50
2023-03-07T18:47:17.530Z,49.50
2023-03-07T18:49:44.260Z,47.30
2023-03-07T18:52:11.012Z,39.60
2023-03-07T18:54:37.752Z,40.30
2023-03-07T18:57:04.530Z,31.80
2023-03-07T18:59:31.351Z,36.90
2023-03-07T19:02:02.871Z,37.60
2023-03-07T19:04:31.623Z,43.50
2023-03-07T19:06:59.836Z,47.20
2023-03-07T19:09:27.121Z,37.70
2023-03-07T19:11:53.950Z,32.70
2023-03-07T19:14:36.451Z,45.50
2023-03-07T19:17:03.334Z,44.70
2023-03-07T19:19:30.135Z,70.00
2023-03-07T19:21:56.916Z,46.00
2023-03-07T19:24:23.781Z,34.20
2023-03-07T19:26:50.714Z,32.30
2023-03-07T19:29:17.626Z,31.70
2023-03-07T19:31:44.564Z,50.20
2023-03-07T19:34:11.862Z,104.90
2023-03-07T19:36:39.387Z,120.80
2023-03-07T19:39:08.829Z,42.00
2023-03-07T19:41:37.741Z,37.10
2023-03-07T19:44:06.559Z,31.90
2023-03-07T19:46:33.298Z,32.30
2023-03-07T19:49:00.155Z,30.10
2023-03-07T19:51:27.217Z,31.80
2023-03-07T19:53:57.319Z,37.00
2023-03-07T19:56:43.873Z,61.90
2023-03-07T19:59:11.368Z,32.60
2023-03-07T20:01:38.352Z,64.50
2023-03-07T20:04:06.830Z,73.60
2023-03-07T20:06:33.725Z,31.60
2023-03-07T20:09:01.437Z,44.90
2023-03-07T20:11:34.138Z,33.90
2023-03-07T20:14:05.162Z,50.00
2023-03-07T20:16:33.586Z,49.30
2023-03-07T20:19:04.111Z,39.50
2023-03-07T20:21:32.581Z,46.70
2023-03-07T20:23:59.939Z,41.80
2023-03-07T20:26:30.120Z,32.90
2023-03-07T20:28:58.196Z,26.50
2023-03-07T20:31:25.786Z,27.50
2023-03-07T20:33:53.099Z,34.40
2023-03-07T20:36:30.426Z,30.20
2023-03-07T20:38:59.491Z,23.40
2023-03-07T20:41:29.133Z,28.70
2023-03-07T20:44:06.574Z,34.20
2023-03-07T20:46:34.486Z,47.70
2023-03-07T20:49:02.419Z,29.20
2023-03-07T20:51:32.289Z,31.40
2023-03-07T20:54:02.651Z,30.50
2023-03-07T20:56:32.814Z,28.10
2023-03-07T20:59:00.242Z,32.70
2023-03-07T21:01:32.452Z,33.70
2023-03-07T21:04:06.476Z,26.10
2023-03-07T21:06:34.640Z,32.80
2023-03-07T21:09:02.118Z,28.10
2023-03-07T21:11:31.354Z,35.10
2023-03-07T21:13:59.046Z,46.80
2023-03-07T21:16:28.042Z,43.60
2023-03-07T21:19:05.362Z,39.90
2023-03-07T21:21:33.313Z,32.70
2023-03-07T21:24:00.396Z,26.70
2023-03-07T21:26:32.881Z,27.40
2023-03-07T21:29:00.458Z,32.20
2023-03-07T21:31:29.994Z,23.30
2023-03-07T21:34:00.043Z,30.30
2023-03-07T21:36:29.275Z,26.70
2023-03-07T21:38:56.215Z,97.20
2023-03-07T21:41:25.077Z,35.80
2023-03-07T21:43:53.705Z,57.20
2023-03-07T21:46:21.299Z,47.20
2023-03-07T21:48:48.246Z,38.40
2023-03-07T21:51:15.141Z,182.10
2023-03-07T21:53:42.173Z,228.20
2023-03-07T21:56:11.974Z,84.70
2023-03-07T21:58:39.933Z,122.10
2023-03-07T22:01:18.011Z,61.70
2023-03-07T22:03:45.077Z,76.60
2023-03-07T22:06:14.209Z,36.90
2023-03-07T22:08:41.539Z,43.10
2023-03-07T22:11:10.051Z,96.50
2023-03-07T22:14:05.847Z,191.00
2023-03-07T22:16:33.701Z,366.30
2023-03-07T22:19:00.441Z,161.00
2023-03-07T22:21:27.772Z,49.30
2023-03-07T22:23:58.222Z,146.80
2023-03-07T22:26:25.772Z,168.10
2023-03-07T22:28:53.370Z,241.80
2023-03-07T22:31:20.217Z,108.60
2023-03-07T22:33:46.953Z,90.20
2023-03-07T22:36:14.414Z,153.30
2023-03-07T22:38:42.796Z,69.40
2023-03-07T22:41:12.200Z,48.50
2023-03-07T22:43:39.447Z,31.40
2023-03-07T22:46:06.428Z,38.20
2023-03-07T22:48:33.796Z,36.50
2023-03-07T22:51:00.977Z,31.10
2023-03-07T22:53:30.975Z,23.90
2023-03-07T22:55:59.892Z,38.90
2023-03-07T22:58:27.217Z,25.60
2023-03-07T23:00:54.450Z,24.30
2023-03-07T23:03:21.356Z,25.80
2023-03-07T23:05:48.225Z,27.00
2023-03-07T23:08:14.942Z,23.60
2023-03-07T23:10:41.698Z,23.70
2023-03-07T23:13:08.427Z,32.20
2023-03-07T23:15:39.621Z,36.60
2023-03-07T23:18:06.400Z,22.80
2023-03-07T23:20:33.450Z,40.60
2023-03-07T23:23:00.203Z,25.70
2023-03-07T23:25:26.898Z,23.20
2023-03-07T23:27:53.640Z,24.70
2023-03-07T23:30:21.887Z,21.80
2023-03-07T23:32:48.651Z,26.20
2023-03-07T23:35:15.466Z,28.40
2023-03-07T23:37:42.836Z,87.70
2023-03-07T23:40:12.052Z,29.00
2023-03-07T23:42:38.825Z,26.00
2023-03-07T23:45:06.090Z,27.50
2023-03-07T23:47:34.247Z,30.60
2023-03-07T23:50:01.066Z,31.50
2023-03-07T23:52:27.923Z,28.00
2023-03-07T23:54:54.642Z,24.90
2023-03-07T23:57:21.449Z,31.70
2023-03-07T23:59:48.954Z,32.90
